Time;durP1;ratioP1;P1;durP2;ratioP2;P2;SDS_P1;SDS_P2;PMS_P1;PMS_P2;Temp;Humidity;BMP_temperature;BMP_pressure;BME280_temperature;BME280_humidity;BME280_pressure;Samples;Min_cycle;Max_cycle;Signal;HPM_P1;HPM_P2
2021/05/14 00:00:31;;;;;;;6.25;3.77;;;;;;;12.09;78.46;99494.89;1735054;82;21826;-82
2021/05/14 00:03:36;;;;;;;6.25;3.27;;;;;;;12.06;78.85;99491.22;1735000;82;21321;-82
2021/05/14 00:06:42;;;;;;;8.38;3.08;;;;;;;12.04;79.16;99492.77;1734953;82;21213;-82
2021/05/14 00:09:47;;;;;;;9.78;3.62;;;;;;;12.03;79.44;99493.30;1734992;82;21297;-82
2021/05/14 00:12:52;;;;;;;12.18;3.67;;;;;;;12.06;79.68;99492.59;1734890;82;21189;-82
2021/05/14 00:15:58;;;;;;;7.58;4.10;;;;;;;12.06;79.90;99492.05;1735167;82;21798;-82
2021/05/14 00:19:04;;;;;;;7.92;3.92;;;;;;;12.08;80.06;99498.69;1733396;82;21237;-82
2021/05/14 00:22:08;;;;;;;7.87;3.72;;;;;;;12.10;80.06;99493.34;1735006;82;21355;-82
2021/05/14 00:25:15;;;;;;;13.08;3.55;;;;;;;12.13;79.94;99497.55;1735014;82;21281;-82
2021/05/14 00:28:20;;;;;;;10.25;3.75;;;;;;;12.12;80.00;99491.22;1734895;82;21348;-82
2021/05/14 00:31:25;;;;;;;7.08;3.70;;;;;;;12.13;80.06;99481.09;1734942;82;21146;-83
2021/05/14 00:34:30;;;;;;;8.13;3.80;;;;;;;12.13;80.05;99478.36;1735117;82;21221;-82
2021/05/14 00:37:36;;;;;;;10.78;4.33;;;;;;;12.11;80.10;99475.83;1735044;82;21324;-83
2021/05/14 00:40:42;;;;;;;8.53;4.10;;;;;;;12.09;80.06;99472.97;1734995;82;21759;-82
2021/05/14 00:43:48;;;;;;;7.45;4.17;;;;;;;12.06;80.17;99474.23;1734906;82;21236;-82
2021/05/14 00:46:54;;;;;;;6.95;3.80;;;;;;;12.03;80.25;99470.00;1734989;82;21878;-82
2021/05/14 00:50:00;;;;;;;12.88;3.90;;;;;;;12.03;80.39;99461.78;1735064;82;21272;-82
2021/05/14 00:53:05;;;;;;;12.88;3.77;;;;;;;12.05;80.51;99465.70;1735075;82;21319;-83
2021/05/14 00:56:11;;;;;;;9.23;4.12;;;;;;;12.07;80.54;99462.75;1735051;82;21320;-82
2021/05/14 00:59:16;;;;;;;7.45;3.67;;;;;;;12.08;80.53;99462.53;1735035;82;21838;-83
2021/05/14 01:02:23;;;;;;;7.12;3.72;;;;;;;12.10;80.50;99460.98;1735022;82;21657;-82
2021/05/14 01:05:30;;;;;;;7.22;3.62;;;;;;;12.11;80.53;99455.80;1735042;82;21736;-82
2021/05/14 01:08:35;;;;;;;7.28;3.67;;;;;;;12.12;80.48;99458.33;1734958;82;21759;-82
2021/05/14 01:11:40;;;;;;;6.65;3.98;;;;;;;12.13;80.40;99453.69;1734895;82;21174;-82
2021/05/14 01:14:46;;;;;;;6.83;3.75;;;;;;;12.13;80.27;99450.42;1734845;82;21200;-82
2021/05/14 01:17:50;;;;;;;13.62;3.70;;;;;;;12.12;80.15;99455.59;1734952;82;21763;-83
2021/05/14 01:20:56;;;;;;;8.58;4.35;;;;;;;12.13;80.12;99452.31;1735059;82;21370;-83
2021/05/14 01:24:02;;;;;;;9.73;3.60;;;;;;;12.11;80.16;99450.32;1735101;82;21292;-83
2021/05/14 01:27:08;;;;;;;11.97;4.22;;;;;;;12.10;80.27;99445.90;1733660;82;21169;-83
2021/05/14 01:30:14;;;;;;;16.32;4.33;;;;;;;12.10;80.36;99440.41;1726903;83;21396;-83
2021/05/14 01:33:20;;;;;;;7.08;4.00;;;;;;;12.10;80.46;99432.19;1726998;83;21312;-83
2021/05/14 01:36:25;;;;;;;10.63;3.98;;;;;;;12.11;80.56;99431.13;1726875;83;21913;-83
2021/05/14 01:39:31;;;;;;;15.05;4.53;;;;;;;12.10;80.64;99429.45;1727116;83;21822;-83
2021/05/14 01:42:37;;;;;;;11.20;4.40;;;;;;;12.08;80.74;99432.91;1727023;83;21327;-83
2021/05/14 01:45:45;;;;;;;13.00;4.10;;;;;;;12.07;80.97;99438.08;1726823;83;21308;-83
2021/05/14 01:48:50;;;;;;;11.22;4.08;;;;;;;12.07;81.33;99440.81;1727011;83;21304;-83
2021/05/14 01:51:58;;;;;;;11.12;4.53;;;;;;;12.10;81.60;99438.52;1711445;83;21823;-83
2021/05/14 01:55:03;;;;;;;11.38;5.25;;;;;;;12.12;81.71;99442.41;1727062;83;21711;-83
2021/05/14 01:58:10;;;;;;;16.70;4.92;;;;;;;12.13;81.73;99434.50;1727116;83;21913;-82
2021/05/14 02:01:16;;;;;;;9.65;4.83;;;;;;;12.12;81.69;99430.08;1727011;83;21751;-83
2021/05/14 02:04:22;;;;;;;15.00;4.55;;;;;;;12.09;81.65;99429.98;1726933;83;21316;-82
2021/05/14 02:07:27;;;;;;;6.45;4.35;;;;;;;12.04;81.75;99429.73;1726986;83;21629;-82
2021/05/14 02:10:33;;;;;;;13.93;4.50;;;;;;;12.02;82.03;99437.33;1727135;83;21270;-82
2021/05/14 02:13:39;;;;;;;13.20;5.00;;;;;;;12.03;82.40;99434.90;1726975;83;21312;-82
2021/05/14 02:16:44;;;;;;;14.85;5.03;;;;;;;12.05;82.87;99437.45;1726899;83;21925;-82
2021/05/14 02:19:49;;;;;;;14.35;4.72;;;;;;;12.07;83.10;99421.63;1727089;83;21349;-82
2021/05/14 02:22:53;;;;;;;15.05;5.53;;;;;;;12.08;83.39;99419.20;1726970;83;21763;-83
2021/05/14 02:25:59;;;;;;;20.43;5.60;;;;;;;12.09;83.89;99414.91;1726996;83;21769;-83
2021/05/14 02:29:04;;;;;;;17.35;5.47;;;;;;;12.11;84.43;99416.90;1729373;82;21339;-82
2021/05/14 02:32:11;;;;;;;19.92;5.55;;;;;;;12.14;84.75;99408.77;1735082;82;21177;-82
2021/05/14 02:35:17;;;;;;;15.88;5.10;;;;;;;12.18;84.80;99414.16;1735018;82;21272;-82
2021/05/14 02:38:23;;;;;;;16.05;5.42;;;;;;;12.20;84.85;99413.44;1735057;82;21327;-82
2021/05/14 02:41:28;;;;;;;13.38;5.55;;;;;;;12.23;84.92;99404.77;1735040;82;21305;-82
2021/05/14 02:44:33;;;;;;;15.08;5.33;;;;;;;12.26;84.97;99410.70;1735129;82;21799;-82
2021/05/14 02:47:37;;;;;;;14.25;5.30;;;;;;;12.29;84.98;99412.19;1735080;82;21656;-82
2021/05/14 02:50:43;;;;;;;10.98;5.53;;;;;;;12.29;84.94;99406.70;1735086;82;21147;-82
2021/05/14 02:53:49;;;;;;;13.28;6.00;;;;;;;12.29;84.98;99406.70;1734986;82;21838;-81
2021/05/14 02:56:56;;;;;;;13.93;5.12;;;;;;;12.31;85.09;99411.44;1735132;82;21299;-82
2021/05/14 03:00:01;;;;;;;10.78;5.35;;;;;;;12.35;85.19;99407.23;1735045;82;21379;-82
2021/05/14 03:03:07;;;;;;;18.87;5.53;;;;;;;12.44;85.11;99415.56;1735039;82;21324;-82
2021/05/14 03:06:11;;;;;;;17.50;5.72;;;;;;;12.54;85.19;99415.98;1735073;82;21206;-82
2021/05/14 03:09:17;;;;;;;10.40;5.12;;;;;;;12.67;84.99;99408.83;1735020;82;21315;-82
2021/05/14 03:12:25;;;;;;;13.32;5.47;;;;;;;12.82;84.76;99420.41;1735064;82;21162;-82
2021/05/14 03:15:30;;;;;;;29.27;5.90;;;;;;;13.01;84.14;99413.22;1735089;82;21315;-82
2021/05/14 03:18:35;;;;;;;20.32;4.87;;;;;;;13.22;83.31;99408.01;1734940;82;21320;-82
2021/05/14 03:21:41;;;;;;;11.53;5.45;;;;;;;13.42;82.71;99415.68;1732590;82;21162;-82
2021/05/14 03:24:46;;;;;;;21.70;6.22;;;;;;;13.55;82.20;99415.64;1712163;82;21260;-82
2021/05/14 03:27:52;;;;;;;14.43;5.30;;;;;;;13.75;81.93;99418.83;1732670;82;21316;-82
2021/05/14 03:30:58;;;;;;;11.18;5.25;;;;;;;13.95;81.56;99411.31;1719348;82;21257;-82
2021/05/14 03:34:03;;;;;;;13.80;4.75;;;;;;;14.15;80.91;99407.59;1693565;83;21197;-82
2021/05/14 03:37:08;;;;;;;14.05;5.25;;;;;;;14.29;80.40;99407.82;1693543;83;21271;-82
2021/05/14 03:40:34;;;;;;;19.95;5.83;;;;;;;14.41;80.06;99408.80;1703733;83;21268;-82
2021/05/14 03:43:29;;;;;;;31.82;6.35;;;;;;;14.51;79.68;99411.92;1719427;83;21173;-82
2021/05/14 03:46:36;;;;;;;28.77;7.17;;;;;;;14.62;79.35;99410.34;1689498;83;21331;-82
2021/05/14 03:49:45;;;;;;;13.18;5.35;;;;;;;14.71;79.15;99423.30;1720167;83;21261;-82
2021/05/14 03:52:52;;;;;;;19.57;5.37;;;;;;;14.76;78.87;99413.30;1706544;83;21833;-82
2021/05/14 03:55:58;;;;;;;11.15;5.72;;;;;;;14.78;78.72;99418.06;1715756;83;21256;-82
2021/05/14 03:59:03;;;;;;;13.75;5.30;;;;;;;14.75;78.77;99417.66;1696189;83;21190;-82
2021/05/14 04:02:09;;;;;;;9.13;4.83;;;;;;;14.73;79.11;99418.43;1700673;83;21284;-82
2021/05/14 04:05:14;;;;;;;13.83;5.55;;;;;;;14.76;79.50;99416.58;1691866;83;21153;-82
2021/05/14 04:08:20;;;;;;;16.30;7.10;;;;;;;14.81;79.86;99424.47;1718037;83;21859;-82
2021/05/14 04:14:35;;;;;;;16.85;6.08;;;;;;;14.88;80.54;99423.05;1707361;83;22166;-82
2021/05/14 04:17:43;;;;;;;12.10;5.33;;;;;;;14.93;80.82;99425.97;1703146;83;21823;-82
2021/05/14 04:20:49;;;;;;;17.98;5.65;;;;;;;14.97;80.99;99424.98;1692458;83;21273;-82
2021/05/14 04:23:55;;;;;;;14.95;7.30;;;;;;;15.02;81.18;99427.36;1720257;83;21278;-81
2021/05/14 04:27:03;;;;;;;12.95;6.05;;;;;;;15.13;81.13;99429.90;1721874;82;21261;-81
2021/05/14 04:30:08;;;;;;;11.10;6.30;;;;;;;15.27;81.17;99423.72;1720821;82;21267;-81
2021/05/14 04:33:15;;;;;;;16.42;7.08;;;;;;;15.44;81.33;99428.10;1680239;84;21157;-81
2021/05/14 04:36:20;;;;;;;21.15;8.55;;;;;;;15.62;80.98;99432.23;1684171;85;21276;-81
2021/05/14 04:39:25;;;;;;;32.40;12.75;;;;;;;15.76;80.80;99427.41;1680252;83;21277;-82
2021/05/14 04:42:31;;;;;;;23.12;11.50;;;;;;;15.86;80.52;99430.48;1687159;83;21188;-82
2021/05/14 04:45:38;;;;;;;34.10;14.65;;;;;;;15.91;80.68;99426.48;1682072;85;21221;-82
2021/05/14 04:48:44;;;;;;;22.90;11.65;;;;;;;15.93;80.61;99424.33;1685556;85;21288;-82
2021/05/14 04:51:51;;;;;;;29.55;14.10;;;;;;;16.01;80.87;99424.02;1679872;85;21299;-83
2021/05/14 04:54:58;;;;;;;33.88;15.63;;;;;;;16.19;80.98;99434.71;1678865;83;21370;-81
2021/05/14 04:58:03;;;;;;;31.20;14.58;;;;;;;16.40;80.79;99431.41;1683498;83;21492;-80
2021/05/14 05:01:08;;;;;;;41.75;15.15;;;;;;;16.64;80.35;99429.54;1682745;84;21678;-81
2021/05/14 05:04:16;;;;;;;38.05;14.18;;;;;;;16.85;79.21;99435.92;1680339;85;21695;-82
2021/05/14 05:07:23;;;;;;;34.78;13.78;;;;;;;17.06;78.92;99427.58;1684524;83;21293;-80
2021/05/14 05:10:28;;;;;;;29.30;12.15;;;;;;;17.31;77.98;99434.77;1672771;84;21316;-80
2021/05/14 05:13:32;;;;;;;36.38;12.88;;;;;;;17.47;77.15;99427.69;1673356;83;21329;-80
2021/05/14 05:16:43;;;;;;;39.27;13.62;;;;;;;17.59;77.19;99426.55;1681833;83;21892;-82
2021/05/14 05:19:50;;;;;;;32.58;11.63;;;;;;;17.80;76.98;99424.28;1685340;83;22219;-81
2021/05/14 05:22:56;;;;;;;35.83;11.90;;;;;;;18.03;76.80;99413.67;1682574;84;21741;-81
2021/05/14 05:26:01;;;;;;;27.62;10.70;;;;;;;18.32;76.52;99420.04;1684688;83;21283;-81
2021/05/14 05:29:06;;;;;;;21.12;9.13;;;;;;;18.65;75.91;99421.47;1679794;85;21316;-82
2021/05/14 05:32:11;;;;;;;13.00;6.28;;;;;;;18.95;74.80;99413.39;1694341;82;21217;-80
2021/05/14 05:35:20;;;;;;;18.85;5.67;;;;;;;19.18;73.56;99411.53;1724211;82;22009;-83
2021/05/14 05:38:32;;;;;;;17.65;4.95;;;;;;;19.27;72.32;99415.00;1723808;82;21319;-81
2021/05/14 05:41:38;;;;;;;19.92;5.95;;;;;;;19.41;72.38;99417.69;1729397;82;21204;-80
2021/05/14 05:44:43;;;;;;;18.37;5.65;;;;;;;19.60;71.52;99415.48;1711892;82;21685;-82
2021/05/14 05:47:49;;;;;;;23.87;5.90;;;;;;;19.83;71.04;99421.34;1728260;81;21165;-82
2021/05/14 05:50:56;;;;;;;12.85;4.70;;;;;;;20.07;70.84;99413.56;1702652;82;21202;-81
2021/05/14 05:54:02;;;;;;;10.38;4.28;;;;;;;20.32;70.22;99414.39;1671420;82;21165;-81
2021/05/14 05:57:07;;;;;;;7.78;4.28;;;;;;;20.54;68.34;99417.15;1732134;81;21283;-82
2021/05/14 06:00:16;;;;;;;14.80;4.30;;;;;;;20.65;67.61;99417.55;1713758;82;21576;-81
2021/05/14 06:03:23;;;;;;;12.43;4.47;;;;;;;20.73;67.38;99418.98;1709425;82;21298;-82
2021/05/14 06:06:33;;;;;;;13.00;4.80;;;;;;;20.81;67.16;99417.13;1712191;83;21316;-81
2021/05/14 06:09:38;;;;;;;11.48;4.42;;;;;;;20.93;66.47;99423.31;1709670;83;21350;-84
2021/05/14 06:12:48;;;;;;;13.08;4.20;;;;;;;21.03;66.10;99418.42;1705823;83;21327;-85
2021/05/14 06:16:02;;;;;;;16.40;4.83;;;;;;;21.13;66.39;99421.27;1699193;83;21293;-84
2021/05/14 06:19:21;;;;;;;13.10;3.87;;;;;;;21.21;65.77;99420.47;1728737;81;21291;-84
2021/05/14 06:22:26;;;;;;;14.90;4.55;;;;;;;21.30;66.43;99430.82;1732675;82;21847;-83
2021/05/14 06:25:31;;;;;;;11.45;4.15;;;;;;;21.45;66.04;99430.11;1728388;81;21179;-84
2021/05/14 06:28:37;;;;;;;13.28;5.00;;;;;;;21.62;64.86;99426.59;1673017;81;21209;-85
2021/05/14 06:31:43;;;;;;;13.22;5.35;;;;;;;21.77;64.46;99430.56;1718757;81;21185;-86
2021/05/14 06:34:53;;;;;;;23.40;4.95;;;;;;;21.93;64.25;99430.37;1698876;81;21540;-82
2021/05/14 06:37:59;;;;;;;19.45;5.03;;;;;;;22.18;63.34;99423.24;1757314;79;21923;-80
2021/05/14 06:41:07;;;;;;;12.10;4.78;;;;;;;22.46;62.67;99430.28;1761884;79;22150;-81
2021/05/14 06:44:12;;;;;;;18.35;4.80;;;;;;;22.62;61.61;99424.16;1756579;79;21694;-82
2021/05/14 06:47:19;;;;;;;15.23;4.53;;;;;;;22.66;61.17;99426.12;1758300;79;21817;-83
2021/05/14 06:50:25;;;;;;;14.35;4.37;;;;;;;22.79;62.32;99419.73;1744271;80;21527;-83
2021/05/14 06:53:32;;;;;;;9.13;3.75;;;;;;;22.93;61.76;99420.31;1758952;79;21739;-83
2021/05/14 06:56:41;;;;;;;10.38;3.33;;;;;;;23.03;61.83;99419.47;1762078;79;21298;-83
2021/05/14 06:59:49;;;;;;;8.95;2.90;;;;;;;23.14;61.92;99418.90;1760858;80;21315;-83
2021/05/14 07:02:59;;;;;;;10.05;3.15;;;;;;;23.23;61.11;99418.61;1756284;79;22175;-83
2021/05/14 07:06:03;;;;;;;10.28;3.12;;;;;;;23.29;60.58;99426.41;1721994;81;21302;-83
2021/05/14 07:09:12;;;;;;;10.78;2.85;;;;;;;23.29;60.71;99432.85;1747100;79;21936;-83
2021/05/14 07:12:30;;;;;;;9.85;2.83;;;;;;;23.32;60.33;99430.88;1755970;79;21213;-83
2021/05/14 07:15:28;;;;;;;9.30;2.62;;;;;;;23.33;59.82;99428.35;1741994;79;21382;-87
2021/05/14 07:18:42;;;;;;;17.35;3.60;;;;;;;23.38;59.29;99438.14;1755505;79;21303;-84
2021/05/14 07:21:50;;;;;;;10.13;2.85;;;;;;;23.36;59.83;99431.16;1754303;79;21323;-86
2021/05/14 07:24:57;;;;;;;8.70;3.22;;;;;;;23.43;60.76;99431.68;1753693;79;22081;-86
2021/05/14 07:28:02;;;;;;;6.47;2.60;;;;;;;23.57;60.65;99433.33;1752826;79;22029;-85
2021/05/14 07:31:10;;;;;;;8.83;2.98;;;;;;;23.62;60.14;99431.38;1702277;81;21196;-83
2021/05/14 07:34:17;;;;;;;7.87;2.90;;;;;;;23.68;60.34;99440.61;1744842;79;21164;-84
2021/05/14 07:37:24;;;;;;;10.95;3.37;;;;;;;23.71;60.79;99438.09;1770863;79;21650;-85
2021/05/14 07:40:34;;;;;;;15.93;3.72;;;;;;;23.78;59.62;99443.36;1772449;79;21188;-87
2021/05/14 07:43:45;;;;;;;13.58;2.90;;;;;;;23.83;59.55;99452.28;1733449;80;21289;-87
2021/05/14 07:46:54;;;;;;;12.73;3.02;;;;;;;23.86;59.52;99448.36;1710969;81;21366;-85
2021/05/14 07:50:05;;;;;;;9.88;3.00;;;;;;;23.94;59.34;99452.50;1733683;80;21325;-86
2021/05/14 07:53:16;;;;;;;9.33;2.62;;;;;;;24.12;58.95;99442.09;1692635;83;21191;-81
2021/05/14 07:56:21;;;;;;;14.28;2.77;;;;;;;24.27;58.48;99453.75;1712475;83;21251;-84
2021/05/14 07:59:33;;;;;;;8.58;2.52;;;;;;;24.34;58.88;99450.09;1718174;82;21849;-83
2021/05/14 08:02:40;;;;;;;12.10;3.72;;;;;;;24.46;58.76;99458.98;1717181;81;21924;-85
2021/05/14 08:05:55;;;;;;;4.95;2.20;;;;;;;24.50;58.68;99448.63;1711027;83;22242;-87
2021/05/14 08:09:19;;;;;;;21.25;3.00;;;;;;;24.45;58.22;99454.52;1710436;83;22001;-86
2021/05/14 08:12:24;;;;;;;14.13;2.47;;;;;;;24.49;58.88;99450.59;1707163;82;21249;-83
2021/05/14 08:15:30;;;;;;;12.23;2.67;;;;;;;24.52;57.88;99457.02;1690232;83;21207;-83
2021/05/14 08:21:55;;;;;;;7.45;2.12;;;;;;;24.48;57.19;99455.92;1692746;82;21164;-83
2021/05/14 08:25:03;;;;;;;10.18;3.30;;;;;;;24.48;57.19;99455.92;1707614;83;21227;-82
2021/05/14 08:28:12;;;;;;;11.10;2.50;;;;;;;24.49;57.46;99456.19;1735804;80;21267;-88
2021/05/14 08:31:19;;;;;;;7.42;2.15;;;;;;;24.63;58.25;99450.23;1712280;83;21982;-85
2021/05/14 08:34:24;;;;;;;10.45;2.55;;;;;;;24.80;57.68;99453.20;1732769;80;21749;-87
2021/05/14 08:37:28;;;;;;;14.80;2.45;;;;;;;24.93;56.23;99455.31;1706716;82;21216;-87
2021/05/14 08:40:37;;;;;;;12.50;2.12;;;;;;;25.02;55.30;99452.17;1726928;81;21262;-87
2021/05/14 08:43:43;;;;;;;6.47;1.87;;;;;;;25.01;54.33;99454.70;1708570;82;21260;-86
2021/05/14 08:46:51;;;;;;;14.70;2.45;;;;;;;24.95;54.10;99461.47;1703978;82;21169;-86
2021/05/14 08:49:59;;;;;;;6.22;2.52;;;;;;;24.87;53.24;99460.13;1684607;82;21533;-82
2021/05/14 08:53:07;;;;;;;16.40;2.10;;;;;;;24.87;55.10;99455.92;1703040;82;21219;-81
2021/05/14 08:56:13;;;;;;;11.50;2.30;;;;;;;24.92;54.99;99460.64;1702694;82;21255;-82
2021/05/14 08:59:20;;;;;;;10.45;2.45;;;;;;;24.98;54.55;99462.27;1705770;82;21323;-81
2021/05/14 09:02:26;;;;;;;8.95;1.90;;;;;;;25.02;52.70;99469.52;1704010;83;21249;-80
2021/05/14 09:05:40;;;;;;;4.17;1.80;;;;;;;25.02;52.60;99460.56;1706946;82;21343;-82
2021/05/14 09:08:46;;;;;;;13.05;1.95;;;;;;;25.07;51.04;99461.08;1696558;82;21382;-83
2021/05/14 09:11:53;;;;;;;7.40;2.00;;;;;;;25.04;50.64;99468.11;1728549;81;21201;-82
2021/05/14 09:14:59;;;;;;;6.83;1.70;;;;;;;24.97;51.29;99468.99;1729989;81;21872;-82
2021/05/14 09:18:17;;;;;;;6.53;1.87;;;;;;;25.05;50.08;99464.75;1732834;81;21303;-82
2021/05/14 09:21:25;;;;;;;15.93;2.60;;;;;;;24.99;49.02;99473.75;1702284;83;21248;-82
2021/05/14 09:24:37;;;;;;;12.63;2.98;;;;;;;24.78;49.30;99470.25;1687194;82;21236;-83
2021/05/14 09:27:43;;;;;;;6.72;2.12;;;;;;;24.70;48.88;99475.05;1734221;81;21216;-80
2021/05/14 09:31:22;;;;;;;10.38;1.62;;;;;;;24.56;48.32;99483.28;1703710;82;21295;-81
2021/05/14 09:34:28;;;;;;;4.35;1.40;;;;;;;24.42;46.89;99482.23;1696883;82;22480;-81
2021/05/14 09:37:36;;;;;;;5.75;1.42;;;;;;;24.29;45.49;99484.23;1669810;83;21264;-87
2021/05/14 09:41:03;;;;;;;11.03;1.55;;;;;;;24.25;45.76;99485.91;1708363;83;21842;-82
2021/05/14 09:44:15;;;;;;;9.00;1.70;;;;;;;24.28;46.73;99492.31;1697744;80;21164;-80
2021/05/14 09:47:21;;;;;;;6.83;1.35;;;;;;;24.43;46.74;99493.69;1691154;83;21817;-84
2021/05/14 09:50:46;;;;;;;6.37;1.40;;;;;;;24.60;46.22;99496.92;1712266;83;21569;-82
2021/05/14 09:53:51;;;;;;;4.47;1.20;;;;;;;24.72;46.16;99490.43;1718341;82;21169;-83
2021/05/14 10:00:36;;;;;;;5.72;1.20;;;;;;;24.93;44.09;99490.28;1713871;83;21850;-82
2021/05/14 10:03:44;;;;;;;6.87;1.70;;;;;;;25.06;43.06;99491.03;1736810;81;21955;-81
2021/05/14 10:06:51;;;;;;;10.32;1.77;;;;;;;25.19;44.38;99489.56;1717942;83;21217;-81
2021/05/14 10:10:01;;;;;;;3.90;1.37;;;;;;;25.32;44.46;99498.69;1686129;81;21444;-82
2021/05/14 10:13:06;;;;;;;7.17;1.40;;;;;;;25.39;43.11;99501.97;1714167;81;21778;-81
2021/05/14 10:16:14;;;;;;;2.60;1.30;;;;;;;25.22;43.09;99489.82;1738048;80;21450;-82
2021/05/14 10:19:21;;;;;;;5.33;1.60;;;;;;;25.08;42.62;99491.63;1716339;81;22325;-81
2021/05/14 10:22:27;;;;;;;6.47;1.95;;;;;;;25.08;42.66;99497.75;1719781;81;21222;-82
2021/05/14 10:25:50;;;;;;;6.95;1.40;;;;;;;25.08;42.29;99490.76;1705781;82;21293;-81
2021/05/14 10:29:00;;;;;;;4.30;1.57;;;;;;;25.12;42.60;99494.64;1710651;81;21156;-83
2021/05/14 10:32:10;;;;;;;10.95;1.50;;;;;;;25.07;42.70;99489.92;1717358;81;21334;-82
2021/05/14 10:35:36;;;;;;;8.50;1.52;;;;;;;25.00;42.97;99495.00;1699528;82;21868;-90
2021/05/14 10:38:49;;;;;;;4.25;1.52;;;;;;;24.96;43.05;99496.13;1715338;81;21205;-89
2021/05/14 10:42:20;;;;;;;5.75;1.70;;;;;;;25.01;43.00;99493.86;1696381;81;21172;-87
2021/05/14 10:45:46;;;;;;;4.92;1.30;;;;;;;25.08;44.23;99487.95;1728854;81;21201;-88
2021/05/14 10:49:18;;;;;;;3.65;1.50;;;;;;;25.13;44.35;99490.17;1692933;81;21461;-89
2021/05/14 10:52:27;;;;;;;2.25;1.20;;;;;;;25.12;42.75;99491.84;1690521;82;21228;-88
2021/05/14 10:55:40;;;;;;;6.72;1.50;;;;;;;25.06;42.78;99484.03;1711591;81;21330;-83
2021/05/14 10:59:00;;;;;;;4.10;1.07;;;;;;;25.06;44.08;99489.63;1711465;81;21224;-83
2021/05/14 11:02:09;;;;;;;6.12;1.52;;;;;;;25.08;43.15;99490.76;1710820;81;21188;-89
2021/05/14 11:05:22;;;;;;;6.10;1.60;;;;;;;25.02;43.09;99489.94;1707969;81;21228;-89
2021/05/14 11:08:46;;;;;;;3.80;1.55;;;;;;;24.97;42.20;99490.80;1708852;81;21181;-89
2021/05/14 11:12:11;;;;;;;3.83;1.52;;;;;;;24.89;42.81;99488.66;1692315;81;21550;-84
2021/05/14 11:15:31;;;;;;;3.50;1.45;;;;;;;24.89;41.67;99486.39;1692397;81;21354;-85
2021/05/14 11:18:37;;;;;;;6.87;1.35;;;;;;;24.88;41.86;99488.92;1686200;82;21189;-85
2021/05/14 11:22:15;;;;;;;13.28;1.57;;;;;;;24.88;41.63;99491.16;1668501;81;21212;-82
2021/05/14 11:25:25;;;;;;;3.77;1.30;;;;;;;24.89;41.51;99484.99;1696660;82;21812;-83
2021/05/14 11:28:56;;;;;;;6.55;1.45;;;;;;;24.90;41.61;99489.48;1706858;82;21238;-83
2021/05/14 11:32:20;;;;;;;7.40;1.40;;;;;;;24.85;40.80;99483.36;1685835;83;21200;-83
2021/05/14 11:35:32;;;;;;;5.37;1.27;;;;;;;24.84;40.94;99473.84;1705937;81;21480;-83
2021/05/14 11:38:43;;;;;;;5.35;1.40;;;;;;;24.81;40.38;99475.27;1666180;82;21879;-82
2021/05/14 11:42:05;;;;;;;6.95;1.40;;;;;;;24.77;39.97;99466.36;1703457;82;21567;-86
2021/05/14 11:45:18;;;;;;;8.95;1.30;;;;;;;24.79;39.89;99469.69;1729603;81;21216;-89
2021/05/14 11:48:40;;;;;;;4.28;1.52;;;;;;;24.79;39.31;99467.72;1678523;83;21662;-88
2021/05/14 11:51:56;;;;;;;3.85;1.40;;;;;;;24.78;39.21;99464.66;1663212;83;21319;-86
2021/05/14 11:55:23;;;;;;;10.15;2.15;;;;;;;24.73;39.60;99469.72;1669583;81;21196;-88
2021/05/14 11:58:39;;;;;;;8.98;1.22;;;;;;;24.71;39.61;99462.20;1681189;83;21427;-87
2021/05/14 12:01:45;;;;;;;3.77;1.15;;;;;;;24.74;38.43;99465.80;1681343;83;21302;-88
2021/05/14 12:05:01;;;;;;;3.65;1.50;;;;;;;24.72;37.52;99461.07;1711519;82;21304;-87
2021/05/14 12:08:36;;;;;;;4.80;1.30;;;;;;;24.69;37.66;99458.02;1707659;81;21625;-83
2021/05/14 12:11:55;;;;;;;2.33;1.10;;;;;;;24.68;38.55;99453.55;1701433;81;21838;-84
2021/05/14 12:15:17;;;;;;;5.80;1.20;;;;;;;24.74;37.64;99463.00;1733360;81;21464;-82
2021/05/14 12:18:26;;;;;;;5.37;1.32;;;;;;;24.79;37.88;99454.31;1692675;83;21531;-81
2021/05/14 12:21:41;;;;;;;8.23;1.20;;;;;;;24.84;38.08;99452.87;1683814;83;21296;-83
2021/05/14 12:24:59;;;;;;;9.80;1.55;;;;;;;24.90;37.95;99451.16;1708952;82;21229;-82
2021/05/14 12:28:47;;;;;;;5.50;1.45;;;;;;;24.95;37.08;99448.32;1688030;83;21200;-82
2021/05/14 12:31:55;;;;;;;6.12;1.30;;;;;;;25.03;37.97;99449.67;1683398;84;21150;-82
2021/05/14 12:35:01;;;;;;;2.80;1.10;;;;;;;25.04;37.64;99452.73;1689384;84;21831;-81
2021/05/14 12:38:08;;;;;;;3.95;1.02;;;;;;;25.03;37.31;99446.87;1671246;82;21283;-81
2021/05/14 12:41:42;;;;;;;8.73;1.47;;;;;;;24.99;37.10;99446.61;1724350;81;21283;-83
2021/05/14 12:44:55;;;;;;;9.90;1.65;;;;;;;24.94;37.76;99446.66;1756930;79;21154;-82
2021/05/14 12:48:03;;;;;;;8.58;1.80;;;;;;;24.92;38.39;99439.67;1713719;82;21323;-82
2021/05/14 12:51:08;;;;;;;9.10;2.37;;;;;;;24.86;37.69;99445.04;1688676;84;21310;-82
2021/05/14 12:54:14;;;;;;;4.83;1.50;;;;;;;24.81;37.99;99446.48;1761968;79;21276;-83
2021/05/14 12:57:46;;;;;;;6.97;1.72;;;;;;;24.84;39.13;99440.28;1708540;81;21265;-82
2021/05/14 13:00:52;;;;;;;3.27;1.07;;;;;;;24.86;39.05;99445.04;1680295;83;21319;-82
2021/05/14 13:04:18;;;;;;;6.55;1.82;;;;;;;24.88;38.88;99447.80;1729150;80;21183;-83
2021/05/14 13:07:25;;;;;;;7.87;2.65;;;;;;;24.85;37.30;99442.81;1759767;79;21157;-82
2021/05/14 13:10:57;;;;;;;8.68;3.98;;;;;;;24.79;37.83;99448.72;1756918;79;21888;-85
2021/05/14 13:14:02;;;;;;;6.58;2.50;;;;;;;24.75;39.12;99452.68;1757146;79;21303;-84
2021/05/14 13:17:08;;;;;;;3.20;1.30;;;;;;;24.69;39.25;99454.65;1759262;80;21268;-85
2021/05/14 13:20:13;;;;;;;4.42;1.52;;;;;;;24.62;39.60;99451.36;1755438;79;21181;-85
2021/05/14 13:23:18;;;;;;;8.75;1.70;;;;;;;24.53;40.07;99447.50;1759261;80;21294;-85
2021/05/14 13:26:25;;;;;;;3.40;1.22;;;;;;;24.44;38.99;99454.26;1761178;80;21270;-85
2021/05/14 13:29:29;;;;;;;5.97;1.20;;;;;;;24.35;38.57;99453.16;1722129;81;21305;-82
2021/05/14 13:32:35;;;;;;;8.55;1.65;;;;;;;24.32;37.88;99443.94;1761520;80;22146;-85
2021/05/14 13:35:41;;;;;;;4.45;1.17;;;;;;;24.34;37.85;99455.69;1759973;79;21154;-85
2021/05/14 13:38:46;;;;;;;10.03;1.47;;;;;;;24.41;38.81;99444.21;1754623;81;21662;-86
2021/05/14 13:41:53;;;;;;;5.60;1.90;;;;;;;24.42;37.36;99455.69;1706875;81;21510;-82
2021/05/14 13:45:00;;;;;;;5.42;1.50;;;;;;;24.42;38.25;99457.09;1710988;81;21176;-83
2021/05/14 13:48:07;;;;;;;4.53;1.42;;;;;;;24.43;37.69;99455.95;1750665;80;21896;-83
2021/05/14 13:51:15;;;;;;;8.78;1.77;;;;;;;24.44;38.19;99447.84;1769690;80;21302;-83
2021/05/14 13:54:21;;;;;;;6.87;1.50;;;;;;;24.48;38.42;99453.13;1785051;80;21192;-83
2021/05/14 13:57:25;;;;;;;7.12;1.62;;;;;;;24.51;37.55;99448.91;1786193;80;21228;-83
2021/05/14 14:00:30;;;;;;;2.42;1.15;;;;;;;24.52;38.34;99448.63;1758679;80;21185;-83
2021/05/14 14:03:38;;;;;;;7.33;1.27;;;;;;;24.55;38.48;99451.39;1770490;81;21312;-83
2021/05/14 14:06:43;;;;;;;9.45;1.82;;;;;;;24.50;38.22;99453.66;1770606;81;21233;-83
2021/05/14 14:09:50;;;;;;;5.65;1.37;;;;;;;24.38;38.13;99461.02;1770261;81;21197;-83
2021/05/14 14:12:55;;;;;;;2.35;1.02;;;;;;;24.27;38.27;99455.72;1762408;81;21323;-83
2021/05/14 14:16:01;;;;;;;7.05;2.27;;;;;;;24.12;38.56;99457.46;1770996;81;21287;-83
2021/05/14 14:19:06;;;;;;;2.80;1.37;;;;;;;24.01;39.38;99453.05;1769949;81;21196;-83
2021/05/14 14:22:11;;;;;;;3.15;1.30;;;;;;;23.90;39.76;99450.00;1770460;81;21169;-83
2021/05/14 14:25:18;;;;;;;6.00;1.40;;;;;;;23.80;39.60;99457.86;1771015;81;21284;-83
2021/05/14 14:28:23;;;;;;;3.80;1.37;;;;;;;23.72;40.63;99457.07;1770267;81;21236;-83
2021/05/14 14:31:29;;;;;;;10.60;1.50;;;;;;;23.64;40.67;99456.24;1771005;81;21347;-83
2021/05/14 14:34:35;;;;;;;4.53;1.25;;;;;;;23.55;40.27;99460.70;1763281;81;21260;-83
2021/05/14 14:37:42;;;;;;;10.80;2.30;;;;;;;23.45;42.02;99459.59;1771119;81;21200;-83
2021/05/14 14:40:52;;;;;;;5.53;1.65;;;;;;;23.37;42.51;99467.13;1771051;81;21193;-83
2021/05/14 14:43:59;;;;;;;;;;;;;;;23.28;43.24;99458.22;1771426;80;21268;-84
2021/05/14 14:47:04;;;;;;;10.00;2.33;;;;;;;23.17;43.60;99465.20;1785567;80;20273;-82
2021/05/14 14:50:13;;;;;;;10.60;2.20;;;;;;;23.00;43.71;99460.45;1778647;80;21256;-83
2021/05/14 14:53:21;;;;;;;3.83;1.98;;;;;;;22.85;44.24;99466.00;1765227;80;21284;-84